createdAt,value
2019-04-14T00:00:38.329Z,0.00
2019-04-14T00:01:38.894Z,0.00
2019-04-14T00:02:38.206Z,0.00
2019-04-14T00:03:38.992Z,0.00
2019-04-14T00:04:37.951Z,0.00
2019-04-14T00:05:38.623Z,0.00
2019-04-14T00:06:37.884Z,0.00
2019-04-14T00:07:38.481Z,0.00
2019-04-14T00:08:37.898Z,0.00
2019-04-14T00:09:38.069Z,0.00
2019-04-14T00:10:37.894Z,0.00
2019-04-14T00:11:38.691Z,0.00
2019-04-14T00:12:38.404Z,0.00
2019-04-14T00:13:37.834Z,0.00
2019-04-14T00:14:38.256Z,0.00
2019-04-14T00:15:42.697Z,0.00
2019-04-14T00:16:38.794Z,0.00
2019-04-14T00:17:37.768Z,0.00
2019-04-14T00:18:38.257Z,0.00
2019-04-14T00:19:37.748Z,0.00
2019-04-14T00:20:38.235Z,0.00
2019-04-14T00:21:38.864Z,0.00
2019-04-14T00:22:38.124Z,0.00
2019-04-14T00:23:37.706Z,0.00
2019-04-14T00:24:38.126Z,0.00
2019-04-14T00:25:37.694Z,0.00
2019-04-14T00:26:37.988Z,0.00
2019-04-14T00:27:38.546Z,0.00
2019-04-14T00:28:38.274Z,0.00
2019-04-14T00:29:37.669Z,0.00
2019-04-14T00:30:38.243Z,0.00
2019-04-14T00:31:37.647Z,0.00
2019-04-14T00:32:37.924Z,0.00
2019-04-14T00:33:38.821Z,0.00
2019-04-14T00:34:37.684Z,0.00
2019-04-14T00:35:38.567Z,0.00
2019-04-14T00:36:37.590Z,0.00
2019-04-14T00:37:38.061Z,0.00
2019-04-14T00:38:37.549Z,0.00
2019-04-14T00:39:37.955Z,0.00
2019-04-14T00:40:37.552Z,0.00
2019-04-14T00:41:44.816Z,0.00
2019-04-14T00:42:38.790Z,0.00
2019-04-14T00:43:37.510Z,0.00
2019-04-14T00:44:38.666Z,0.00
2019-04-14T00:45:45.264Z,0.00
2019-04-14T00:46:38.793Z,0.00
2019-04-14T00:47:49.825Z,0.00
2019-04-14T00:48:38.740Z,0.00
2019-04-14T00:49:37.630Z,0.00
2019-04-14T00:50:38.679Z,0.00
2019-04-14T00:51:39.340Z,0.00
2019-04-14T00:52:37.446Z,0.00
2019-04-14T00:53:38.178Z,0.00
2019-04-14T00:54:37.411Z,0.00
2019-04-14T00:55:37.994Z,0.00
2019-04-14T00:56:37.362Z,0.00
2019-04-14T00:57:37.673Z,0.00
2019-04-14T00:58:37.351Z,0.00
2019-04-14T00:59:37.616Z,0.00
2019-04-14T01:00:38.593Z,0.00
2019-04-14T01:01:37.307Z,0.00
2019-04-14T01:02:38.489Z,0.00
2019-04-14T01:03:37.391Z,0.00
2019-04-14T01:04:38.291Z,0.00
2019-04-14T01:05:37.519Z,0.00
2019-04-14T01:06:38.259Z,0.00
2019-04-14T01:07:37.254Z,0.00
2019-04-14T01:08:38.095Z,0.00
2019-04-14T01:09:37.273Z,0.00
2019-04-14T01:10:37.228Z,0.00
2019-04-14T01:11:37.851Z,0.00
2019-04-14T01:12:37.193Z,0.00
2019-04-14T01:13:37.496Z,0.00
2019-04-14T01:14:37.272Z,0.00
2019-04-14T01:15:50.120Z,0.00
2019-04-14T01:16:38.613Z,0.00
2019-04-14T01:17:37.382Z,0.00
2019-04-14T01:18:37.130Z,0.00
2019-04-14T01:19:37.384Z,0.00
2019-04-14T01:20:38.259Z,0.00
2019-04-14T01:21:37.141Z,0.00
2019-04-14T01:22:38.085Z,0.00
2019-04-14T01:23:37.077Z,0.00
2019-04-14T01:24:38.124Z,0.00
2019-04-14T01:25:37.058Z,0.00
2019-04-14T01:26:37.800Z,0.00
2019-04-14T01:27:37.049Z,0.00
2019-04-14T01:28:37.561Z,0.00
2019-04-14T01:29:38.372Z,0.00
2019-04-14T01:30:37.292Z,0.00
2019-04-14T01:31:38.150Z,0.00
2019-04-14T01:32:37.233Z,0.00
2019-04-14T01:33:37.901Z,0.00
2019-04-14T01:34:37.104Z,0.00
2019-04-14T01:35:37.901Z,0.00
2019-04-14T01:36:36.960Z,0.00
2019-04-14T01:37:37.607Z,0.00
2019-04-14T01:38:36.933Z,0.00
2019-04-14T01:39:37.226Z,0.00
2019-04-14T01:40:38.048Z,0.00
2019-04-14T01:41:36.901Z,0.00
2019-04-14T01:42:37.736Z,0.00
2019-04-14T01:43:36.868Z,0.00
2019-04-14T01:44:37.367Z,0.00
2019-04-14T01:45:38.120Z,0.00
2019-04-14T01:46:37.417Z,0.00
2019-04-14T01:47:37.718Z,0.00
2019-04-14T01:48:36.816Z,0.00
2019-04-14T01:49:37.633Z,0.00
2019-04-14T01:50:36.799Z,0.00
2019-04-14T01:51:37.410Z,0.00
2019-04-14T01:52:36.798Z,0.00
2019-04-14T01:53:37.843Z,0.00
2019-04-14T01:54:36.753Z,0.00
2019-04-14T01:55:37.328Z,0.00
2019-04-14T01:56:36.732Z,0.00
2019-04-14T01:57:37.076Z,0.00
2019-04-14T01:58:36.762Z,0.00
2019-04-14T01:59:36.952Z,0.00
2019-04-14T02:00:36.693Z,0.00
2019-04-14T02:01:36.798Z,0.00
2019-04-14T02:02:37.712Z,0.00
2019-04-14T02:03:36.716Z,0.00
2019-04-14T02:04:37.719Z,0.00
2019-04-14T02:05:36.637Z,0.00
2019-04-14T02:06:37.619Z,0.00
2019-04-14T02:07:36.624Z,0.00
2019-04-14T02:08:37.231Z,0.00
2019-04-14T02:09:37.830Z,0.00
2019-04-14T02:10:36.894Z,0.00
2019-04-14T02:11:37.698Z,0.00
2019-04-14T02:12:36.632Z,0.00
2019-04-14T02:13:37.569Z,0.00
2019-04-14T02:14:36.573Z,0.00
2019-04-14T02:15:37.407Z,0.00
2019-04-14T02:16:44.299Z,0.00
2019-04-14T02:17:37.511Z,0.00
2019-04-14T02:18:36.541Z,0.00
2019-04-14T02:19:37.172Z,0.00
2019-04-14T02:20:36.482Z,0.00
2019-04-14T02:21:36.737Z,0.00
2019-04-14T02:22:37.609Z,0.00
2019-04-14T02:23:36.642Z,0.00
2019-04-14T02:24:37.493Z,0.00
2019-04-14T02:25:36.450Z,0.00
2019-04-14T02:26:37.346Z,0.00
2019-04-14T02:27:36.421Z,0.00
2019-04-14T02:28:37.531Z,0.00
2019-04-14T02:29:36.408Z,0.00
2019-04-14T02:30:45.732Z,0.00
2019-04-14T02:32:05.678Z,0.00
2019-04-14T02:33:09.105Z,0.00
2019-04-14T02:34:02.275Z,0.00
2019-04-14T02:35:02.897Z,0.00
2019-04-14T02:36:17.954Z,0.00
2019-04-14T02:37:06.606Z,0.00
2019-04-14T02:38:13.806Z,0.00
2019-04-14T02:39:06.148Z,0.00
2019-04-14T02:40:04.052Z,0.00
2019-04-14T02:42:19.411Z,0.00
2019-04-14T02:43:04.075Z,0.00
2019-04-14T02:44:04.885Z,0.00
2019-04-14T02:45:08.632Z,0.00
2019-04-14T02:47:36.383Z,0.00
2019-04-14T02:51:04.229Z,0.00
2019-04-14T02:52:04.690Z,0.00
2019-04-14T02:53:09.109Z,0.00
2019-04-14T02:54:10.056Z,0.00
2019-04-14T02:56:08.271Z,0.00
2019-04-14T02:58:04.347Z,0.00
2019-04-14T03:01:11.838Z,0.00
2019-04-14T03:02:19.651Z,0.00
2019-04-14T03:04:01.472Z,0.00
2019-04-14T03:07:05.480Z,0.00
2019-04-14T03:07:59.909Z,0.00
2019-04-14T03:09:13.855Z,0.00
2019-04-14T03:10:22.277Z,0.00
2019-04-14T03:11:01.312Z,0.00
2019-04-14T03:12:03.013Z,0.00
2019-04-14T03:13:06.820Z,0.00
2019-04-14T03:15:01.369Z,0.00
2019-04-14T03:16:02.170Z,0.00
2019-04-14T03:17:14.658Z,0.00
2019-04-14T03:18:57.918Z,0.00
2019-04-14T03:21:04.398Z,0.00
2019-04-14T03:22:13.111Z,0.00
2019-04-14T03:22:55.676Z,0.00
2019-04-14T03:24:06.052Z,0.00
2019-04-14T03:24:50.390Z,0.00
2019-04-14T03:25:57.410Z,0.00
2019-04-14T03:27:24.779Z,0.00
2019-04-14T03:28:04.168Z,0.00
2019-04-14T03:28:56.467Z,0.00
2019-04-14T03:31:24.631Z,0.00
2019-04-14T03:34:30.367Z,0.00
2019-04-14T03:35:23.256Z,0.00
2019-04-14T03:38:12.836Z,0.00
2019-04-14T03:39:05.989Z,0.00
2019-04-14T03:39:57.264Z,0.00
2019-04-14T03:41:08.885Z,0.00
2019-04-14T03:42:01.623Z,0.00
2019-04-14T03:44:07.166Z,0.00
2019-04-14T03:45:04.177Z,0.00
2019-04-14T03:46:12.863Z,0.00
2019-04-14T03:48:34.439Z,0.00
2019-04-14T03:50:06.141Z,0.00
2019-04-14T03:51:06.828Z,0.00
2019-04-14T03:52:02.489Z,0.00
2019-04-14T03:53:05.889Z,0.00
2019-04-14T03:53:58.678Z,0.00
2019-04-14T03:54:55.250Z,0.00
2019-04-14T03:55:45.326Z,0.00
2019-04-14T03:56:37.545Z,0.00
2019-04-14T03:57:36.620Z,0.00
2019-04-14T03:58:35.773Z,0.00
2019-04-14T03:59:36.669Z,0.00
2019-04-14T04:00:35.672Z,0.00
2019-04-14T04:01:36.654Z,0.00
2019-04-14T04:02:35.949Z,0.00
2019-04-14T04:03:35.413Z,0.00
2019-04-14T04:04:35.851Z,0.00
2019-04-14T04:05:36.675Z,0.00
2019-04-14T04:06:35.641Z,0.00
2019-04-14T04:07:36.411Z,0.00
2019-04-14T04:08:35.542Z,0.00
2019-04-14T04:09:36.432Z,0.00
2019-04-14T04:10:35.702Z,0.00
2019-04-14T04:11:36.544Z,0.00
2019-04-14T04:12:35.763Z,0.00
2019-04-14T04:13:36.558Z,0.00
2019-04-14T04:14:35.732Z,0.00
2019-04-14T04:15:36.427Z,0.00
2019-04-14T04:16:35.514Z,0.00
2019-04-14T04:17:36.294Z,0.00
2019-04-14T04:18:47.449Z,0.00
2019-04-14T04:19:36.239Z,4.00
2019-04-14T04:20:35.267Z,4.00
2019-04-14T04:21:35.569Z,4.00
2019-04-14T04:22:35.198Z,0.00
2019-04-14T04:23:35.652Z,4.00
2019-04-14T04:24:35.218Z,4.00
2019-04-14T04:25:35.372Z,4.00
2019-04-14T04:26:36.476Z,8.00
2019-04-14T04:27:35.243Z,8.00
2019-04-14T04:28:36.326Z,8.00
2019-04-14T04:29:35.159Z,8.00
2019-04-14T04:30:36.209Z,12.00
2019-04-14T04:31:35.118Z,12.00
2019-04-14T04:32:36.238Z,16.00
2019-04-14T04:33:35.080Z,16.00
2019-04-14T04:34:35.859Z,16.00
2019-04-14T04:35:35.063Z,20.00
2019-04-14T04:36:35.643Z,24.00
2019-04-14T04:37:35.040Z,24.00
2019-04-14T04:38:35.582Z,28.00
2019-04-14T04:39:36.563Z,32.00
2019-04-14T04:40:35.344Z,32.00
2019-04-14T04:41:36.328Z,36.00
2019-04-14T04:42:35.169Z,40.00
2019-04-14T04:43:34.986Z,40.00
2019-04-14T04:44:35.638Z,48.00
2019-04-14T04:45:34.961Z,52.00
2019-04-14T04:46:35.167Z,52.00
2019-04-14T04:47:36.168Z,60.00
2019-04-14T04:48:35.022Z,76.00
2019-04-14T04:49:36.059Z,92.00
2019-04-14T04:50:34.916Z,104.00
2019-04-14T04:51:35.702Z,116.00
2019-04-14T04:52:34.891Z,132.00
2019-04-14T04:53:35.417Z,148.00
2019-04-14T04:54:34.875Z,152.00
2019-04-14T04:55:35.167Z,152.00
2019-04-14T04:56:34.840Z,148.00
2019-04-14T04:57:35.166Z,140.00
2019-04-14T04:58:34.891Z,140.00
2019-04-14T04:59:34.824Z,156.00
2019-04-14T05:00:35.259Z,184.00
2019-04-14T05:01:34.831Z,196.00
2019-04-14T05:02:35.289Z,216.00
2019-04-14T05:03:34.766Z,232.00
2019-04-14T05:04:35.106Z,224.00
2019-04-14T05:05:34.758Z,256.00
2019-04-14T05:06:35.124Z,292.00
2019-04-14T05:07:34.763Z,292.00
2019-04-14T05:08:34.860Z,308.00
2019-04-14T05:09:34.703Z,348.00
2019-04-14T05:10:34.999Z,364.00
2019-04-14T05:11:34.686Z,376.00
2019-04-14T05:12:34.919Z,416.00
2019-04-14T05:13:35.901Z,424.00
2019-04-14T05:14:34.805Z,428.00
2019-04-14T05:15:35.562Z,492.00
2019-04-14T05:16:34.655Z,556.00
2019-04-14T05:17:34.620Z,572.00
2019-04-14T05:18:35.554Z,612.00
2019-04-14T05:19:36.547Z,680.00
2019-04-14T05:20:35.605Z,648.00
2019-04-14T05:21:34.583Z,560.00
2019-04-14T05:22:35.393Z,528.00
2019-04-14T05:23:34.562Z,556.00
2019-04-14T05:24:35.351Z,636.00
2019-04-14T05:25:34.547Z,752.00
2019-04-14T05:26:35.132Z,844.00
2019-04-14T05:27:34.551Z,912.00
2019-04-14T05:28:35.280Z,1024.00
2019-04-14T05:29:34.509Z,1056.00
2019-04-14T05:30:34.988Z,1196.00
2019-04-14T05:31:34.476Z,1284.00
2019-04-14T05:32:34.774Z,1372.00
2019-04-14T05:33:34.475Z,1252.00
2019-04-14T05:34:34.769Z,1320.00
2019-04-14T05:35:34.447Z,1288.00
2019-04-14T05:36:34.648Z,1200.00
2019-04-14T05:37:35.463Z,1448.00
2019-04-14T05:38:35.505Z,1796.00
2019-04-14T05:39:35.421Z,1684.00
2019-04-14T05:40:34.413Z,1512.00
2019-04-14T05:41:35.415Z,1600.00
2019-04-14T05:42:34.359Z,1720.00
2019-04-14T05:43:43.843Z,1980.00
2019-04-14T05:44:36.107Z,2068.00
2019-04-14T05:45:35.119Z,1852.00
2019-04-14T05:46:34.321Z,1916.00
2019-04-14T05:47:34.997Z,1844.00
2019-04-14T05:48:34.353Z,1616.00
2019-04-14T05:49:41.108Z,1564.00
2019-04-14T05:50:35.695Z,1404.00
2019-04-14T05:51:35.094Z,1412.00
2019-04-14T05:52:34.258Z,1680.00
2019-04-14T05:53:35.120Z,1812.00
2019-04-14T05:54:34.252Z,1480.00
2019-04-14T05:55:35.169Z,1576.00
2019-04-14T05:56:36.118Z,1564.00
2019-04-14T05:57:35.168Z,1416.00
2019-04-14T05:58:34.199Z,1476.00
2019-04-14T05:59:35.235Z,1660.00
2019-04-14T06:00:34.260Z,1536.00
2019-04-14T06:01:34.185Z,1456.00
2019-04-14T06:02:35.508Z,1496.00
2019-04-14T06:03:34.280Z,1640.00
2019-04-14T06:04:35.235Z,1664.00
2019-04-14T06:05:34.141Z,1632.00
2019-04-14T06:06:34.116Z,1628.00
2019-04-14T06:07:34.169Z,1732.00
2019-04-14T06:08:34.099Z,1936.00
2019-04-14T06:09:34.083Z,2108.00
2019-04-14T06:10:34.081Z,2332.00
2019-04-14T06:11:34.082Z,2596.00
2019-04-14T06:12:34.050Z,2780.00
2019-04-14T06:13:34.046Z,2940.00
2019-04-14T06:14:34.041Z,3128.00
2019-04-14T06:15:34.021Z,3128.00
2019-04-14T06:16:34.015Z,3232.00
2019-04-14T06:17:34.008Z,3336.00
2019-04-14T06:18:33.989Z,3416.00
2019-04-14T06:19:39.041Z,3624.00
2019-04-14T06:20:34.966Z,3856.00
2019-04-14T06:21:33.966Z,3684.00
2019-04-14T06:22:33.957Z,3768.00
2019-04-14T06:23:33.934Z,4204.00
2019-04-14T06:24:33.939Z,4464.00
2019-04-14T06:25:36.264Z,4572.00
2019-04-14T06:26:33.952Z,4988.00
2019-04-14T06:27:33.893Z,5368.00
2019-04-14T06:28:33.911Z,5732.00
2019-04-14T06:29:33.871Z,5892.00
2019-04-14T06:30:33.882Z,6440.00
2019-04-14T06:31:33.860Z,6488.00
2019-04-14T06:32:33.843Z,6416.00
2019-04-14T06:33:33.844Z,6184.00
2019-04-14T06:34:33.920Z,6108.00
2019-04-14T06:35:33.844Z,5996.00
2019-04-14T06:36:33.826Z,5668.00
2019-04-14T06:37:33.825Z,5256.00
2019-04-14T06:38:33.812Z,5392.00
2019-04-14T06:39:33.770Z,5520.00
2019-04-14T06:40:33.781Z,4992.00
2019-04-14T06:41:33.745Z,4796.00
2019-04-14T06:42:33.856Z,4220.00
2019-04-14T06:43:33.753Z,4248.00
2019-04-14T06:44:33.736Z,4224.00
2019-04-14T06:45:33.727Z,4016.00
2019-04-14T06:46:33.725Z,4200.00
2019-04-14T06:47:33.710Z,4428.00
2019-04-14T06:48:33.679Z,5136.00
2019-04-14T06:49:33.684Z,5520.00
2019-04-14T06:50:33.669Z,5776.00
2019-04-14T06:51:33.747Z,6044.00
2019-04-14T06:52:33.866Z,6220.00
2019-04-14T06:53:33.687Z,6276.00
2019-04-14T06:54:33.693Z,6384.00
2019-04-14T06:55:33.689Z,6472.00
2019-04-14T06:56:33.603Z,6404.00
2019-04-14T06:57:33.635Z,6436.00
2019-04-14T06:58:33.590Z,6504.00
2019-04-14T06:59:33.562Z,6412.00
2019-04-14T07:00:33.632Z,6328.00
2019-04-14T07:01:33.540Z,6244.00
2019-04-14T07:02:33.542Z,6100.00
2019-04-14T07:03:33.561Z,6000.00
2019-04-14T07:04:33.656Z,5964.00
2019-04-14T07:05:33.491Z,6032.00
2019-04-14T07:06:33.492Z,5980.00
2019-04-14T07:07:33.578Z,5892.00
2019-04-14T07:08:33.678Z,5752.00
2019-04-14T07:09:33.611Z,5456.00
2019-04-14T07:10:33.474Z,5220.00
2019-04-14T07:11:33.439Z,5192.00
2019-04-14T07:12:33.474Z,5212.00
2019-04-14T07:13:33.575Z,5280.00
2019-04-14T07:14:33.439Z,5400.00
2019-04-14T07:15:33.427Z,5604.00
2019-04-14T07:16:33.391Z,5928.00
2019-04-14T07:17:33.394Z,6308.00
2019-04-14T07:18:33.384Z,6684.00
2019-04-14T07:19:33.347Z,6976.00
2019-04-14T07:20:33.355Z,7292.00
2019-04-14T07:21:33.372Z,7544.00
2019-04-14T07:22:33.313Z,7628.00
2019-04-14T07:23:33.333Z,7772.00
2019-04-14T07:24:33.291Z,8044.00
2019-04-14T07:25:33.373Z,8372.00
2019-04-14T07:26:33.311Z,8696.00
2019-04-14T07:27:33.288Z,9040.00
2019-04-14T07:28:33.268Z,9644.00
2019-04-14T07:29:33.237Z,10648.00
2019-04-14T07:30:33.235Z,11744.00
2019-04-14T07:31:33.230Z,12548.00
2019-04-14T07:32:33.206Z,13168.00
2019-04-14T07:33:33.200Z,13632.00
2019-04-14T07:34:36.110Z,13976.00
2019-04-14T07:35:33.171Z,14244.00
2019-04-14T07:36:33.223Z,14356.00
2019-04-14T07:37:33.167Z,14180.00
2019-04-14T07:38:33.156Z,14488.00
2019-04-14T07:39:33.145Z,14804.00
2019-04-14T07:40:33.172Z,15744.00
2019-04-14T07:41:33.116Z,16320.00
2019-04-14T07:42:33.148Z,16544.00
2019-04-14T07:43:33.120Z,16512.00
2019-04-14T07:44:33.087Z,16480.00
2019-04-14T07:45:33.110Z,16512.00
2019-04-14T07:46:33.251Z,16768.00
2019-04-14T07:47:33.117Z,17632.00
2019-04-14T07:48:33.042Z,17888.00
2019-04-14T07:49:33.028Z,18976.00
2019-04-14T07:50:33.018Z,19296.00
2019-04-14T07:51:33.013Z,19488.00
2019-04-14T07:52:33.030Z,19968.00
2019-04-14T07:53:32.981Z,20224.00
2019-04-14T07:54:32.975Z,20448.00
2019-04-14T07:55:32.953Z,20992.00
2019-04-14T07:56:32.988Z,21952.00
2019-04-14T07:57:32.946Z,22976.00
2019-04-14T07:58:32.928Z,24128.00
2019-04-14T07:59:32.938Z,24928.00
2019-04-14T08:00:32.912Z,24928.00
2019-04-14T08:01:32.892Z,25696.00
2019-04-14T08:02:32.896Z,25376.00
2019-04-14T08:03:32.869Z,25504.00
2019-04-14T08:04:32.861Z,25920.00
2019-04-14T08:05:32.847Z,25760.00
2019-04-14T08:06:32.868Z,26304.00
2019-04-14T08:07:32.873Z,26624.00
2019-04-14T08:08:32.820Z,27872.00
2019-04-14T08:09:32.850Z,27936.00
2019-04-14T08:10:32.794Z,27680.00
2019-04-14T08:11:32.782Z,27232.00
2019-04-14T08:12:35.124Z,28160.00
2019-04-14T08:13:32.847Z,28384.00
2019-04-14T08:14:32.758Z,29728.00
2019-04-14T08:15:32.754Z,30368.00
2019-04-14T08:16:32.727Z,31616.00
2019-04-14T08:17:32.714Z,34112.00
2019-04-14T08:18:32.731Z,50304.00
2019-04-14T08:19:32.752Z,44288.00
2019-04-14T08:20:32.682Z,48128.00
2019-04-14T08:21:32.674Z,48672.00
2019-04-14T08:22:32.680Z,54304.00
2019-04-14T08:23:32.692Z,53120.00
2019-04-14T08:24:32.653Z,51360.00
2019-04-14T08:25:32.665Z,55712.00
2019-04-14T08:26:32.623Z,41568.00
2019-04-14T08:27:32.666Z,54400.00
2019-04-14T08:28:32.599Z,57728.00
2019-04-14T08:29:32.616Z,58208.00
2019-04-14T08:30:32.593Z,54304.00
2019-04-14T08:31:32.566Z,44448.00
2019-04-14T08:32:32.555Z,58240.00
2019-04-14T08:33:32.549Z,58144.00
2019-04-14T08:34:32.558Z,61632.00
2019-04-14T08:35:32.525Z,60832.00
2019-04-14T08:36:33.354Z,40864.00
2019-04-14T08:37:32.516Z,51232.00
2019-04-14T08:38:32.490Z,63936.00
2019-04-14T08:39:32.501Z,46752.00
2019-04-14T08:40:32.475Z,67488.00
2019-04-14T08:41:32.483Z,65312.00
2019-04-14T08:42:32.517Z,71200.00
2019-04-14T08:43:32.459Z,72800.00
2019-04-14T08:44:32.426Z,67360.00
2019-04-14T08:45:32.418Z,71136.00
2019-04-14T08:46:32.443Z,72832.00
2019-04-14T08:47:32.432Z,71968.00
2019-04-14T08:48:32.407Z,70592.00
2019-04-14T08:49:32.371Z,70432.00
2019-04-14T08:50:39.360Z,74272.00
2019-04-14T08:51:33.367Z,76576.00
2019-04-14T08:52:32.376Z,70912.00
2019-04-14T08:53:32.329Z,68800.00
2019-04-14T08:54:32.320Z,70496.00
2019-04-14T08:55:32.381Z,70944.00
2019-04-14T08:56:32.363Z,69216.00
2019-04-14T08:57:32.291Z,61312.00
2019-04-14T08:58:32.318Z,64736.00
2019-04-14T08:59:32.281Z,62752.00
2019-04-14T09:00:32.317Z,63136.00
2019-04-14T09:01:32.246Z,64576.00
2019-04-14T09:02:32.248Z,68512.00
2019-04-14T09:03:32.233Z,70304.00
2019-04-14T09:04:32.216Z,73056.00
2019-04-14T09:05:32.224Z,69760.00
2019-04-14T09:06:32.264Z,68576.00
2019-04-14T09:07:32.186Z,68352.00
2019-04-14T09:08:32.193Z,67072.00
2019-04-14T09:09:32.166Z,66752.00
2019-04-14T09:10:32.153Z,69376.00
2019-04-14T09:11:32.144Z,70560.00
2019-04-14T09:12:32.179Z,72384.00
2019-04-14T09:13:32.122Z,69312.00
2019-04-14T09:14:32.123Z,68768.00
2019-04-14T09:15:32.119Z,65600.00
2019-04-14T09:16:32.091Z,62464.00
2019-04-14T09:17:32.081Z,65536.00
2019-04-14T09:18:32.084Z,70304.00
2019-04-14T09:19:32.075Z,67840.00
2019-04-14T09:20:32.052Z,69152.00
2019-04-14T09:21:32.041Z,72064.00
2019-04-14T09:22:32.031Z,73312.00
2019-04-14T09:23:32.022Z,31584.00
2019-04-14T09:24:32.053Z,27872.00
2019-04-14T09:25:32.001Z,30304.00
2019-04-14T09:26:31.991Z,71840.00
2019-04-14T09:27:32.046Z,72320.00
2019-04-14T09:28:32.010Z,72352.00
2019-04-14T09:29:31.962Z,75776.00
2019-04-14T09:30:31.990Z,75296.00
2019-04-14T09:31:31.942Z,73696.00
2019-04-14T09:32:31.930Z,72384.00
2019-04-14T09:33:31.939Z,69248.00
2019-04-14T09:34:31.928Z,71200.00
2019-04-14T09:35:31.900Z,70432.00
2019-04-14T09:36:31.931Z,71200.00
2019-04-14T09:37:31.879Z,71200.00
2019-04-14T09:38:31.908Z,69024.00
2019-04-14T09:39:31.865Z,70560.00
2019-04-14T09:40:31.849Z,26176.00
2019-04-14T09:41:31.853Z,71392.00
2019-04-14T09:42:31.891Z,63200.00
2019-04-14T09:43:31.822Z,31744.00
2019-04-14T09:44:31.809Z,30336.00
2019-04-14T09:45:31.801Z,34624.00
2019-04-14T09:46:31.803Z,57920.00
2019-04-14T09:47:31.783Z,63872.00
2019-04-14T09:48:31.872Z,27712.00
2019-04-14T09:49:31.758Z,33664.00
2019-04-14T09:50:31.748Z,46624.00
2019-04-14T09:51:31.774Z,41408.00
2019-04-14T09:52:31.729Z,27968.00
2019-04-14T09:53:31.734Z,20800.00
2019-04-14T09:54:31.766Z,19328.00
2019-04-14T09:55:31.699Z,21664.00
2019-04-14T09:56:31.687Z,46048.00
2019-04-14T09:57:31.679Z,34496.00
2019-04-14T09:58:31.668Z,61152.00
2019-04-14T09:59:31.654Z,68448.00
2019-04-14T10:00:31.699Z,68640.00
2019-04-14T10:01:31.649Z,63968.00
2019-04-14T10:02:31.633Z,20416.00
2019-04-14T10:03:31.672Z,20640.00
2019-04-14T10:04:31.601Z,42656.00
2019-04-14T10:05:31.590Z,64608.00
2019-04-14T10:06:31.638Z,54592.00
2019-04-14T10:07:31.569Z,59776.00
2019-04-14T10:08:31.568Z,61664.00
2019-04-14T10:09:31.549Z,58784.00
2019-04-14T10:10:31.537Z,62560.00
2019-04-14T10:11:31.548Z,64064.00
2019-04-14T10:12:31.555Z,65472.00
2019-04-14T10:13:31.507Z,67648.00
2019-04-14T10:14:31.509Z,67360.00
2019-04-14T10:15:31.485Z,68064.00
2019-04-14T10:16:31.486Z,65376.00
2019-04-14T10:17:31.466Z,44160.00
2019-04-14T10:18:31.495Z,48192.00
2019-04-14T10:19:31.444Z,61856.00
2019-04-14T10:20:31.439Z,59072.00
2019-04-14T10:21:31.462Z,62240.00
2019-04-14T10:22:34.068Z,64160.00
2019-04-14T10:23:31.403Z,63936.00
2019-04-14T10:24:31.427Z,29664.00
2019-04-14T10:25:31.396Z,42976.00
2019-04-14T10:26:31.374Z,61984.00
2019-04-14T10:27:31.359Z,61760.00
2019-04-14T10:28:31.350Z,64768.00
2019-04-14T10:29:31.336Z,60224.00
2019-04-14T10:30:31.355Z,56736.00
2019-04-14T10:31:31.393Z,41408.00
2019-04-14T10:32:31.309Z,57632.00
2019-04-14T10:33:31.295Z,58720.00
2019-04-14T10:34:31.295Z,55136.00
2019-04-14T10:35:31.272Z,57856.00
2019-04-14T10:36:31.277Z,55520.00
2019-04-14T10:37:31.281Z,58816.00
2019-04-14T10:38:31.243Z,41248.00
2019-04-14T10:39:31.230Z,60256.00
2019-04-14T10:40:31.219Z,57600.00
2019-04-14T10:41:31.225Z,24576.00
2019-04-14T10:42:31.198Z,27264.00
2019-04-14T10:43:31.227Z,22880.00
2019-04-14T10:44:31.177Z,22848.00
2019-04-14T10:45:31.166Z,23104.00
2019-04-14T10:46:31.157Z,23104.00
2019-04-14T10:47:31.167Z,22848.00
2019-04-14T10:48:31.136Z,22240.00
2019-04-14T10:49:31.145Z,21504.00
2019-04-14T10:50:31.416Z,19136.00
2019-04-14T10:51:33.955Z,18880.00
2019-04-14T10:52:31.102Z,19424.00
2019-04-14T10:53:31.091Z,19904.00
2019-04-14T10:54:31.071Z,20960.00
2019-04-14T10:55:31.078Z,19648.00
2019-04-14T10:56:31.049Z,20032.00
2019-04-14T10:57:31.064Z,20576.00
2019-04-14T10:58:31.038Z,20640.00
2019-04-14T10:59:31.046Z,18912.00
2019-04-14T11:00:31.009Z,21120.00
2019-04-14T11:01:31.004Z,19264.00
2019-04-14T11:02:30.985Z,20608.00
2019-04-14T11:03:30.989Z,19776.00
2019-04-14T11:04:30.963Z,20864.00
2019-04-14T11:05:30.952Z,21056.00
2019-04-14T11:06:30.941Z,21600.00
2019-04-14T11:07:30.946Z,21888.00
2019-04-14T11:08:30.919Z,21664.00
2019-04-14T11:09:30.930Z,21376.00
2019-04-14T11:10:30.898Z,20320.00
2019-04-14T11:11:30.899Z,20032.00
2019-04-14T11:12:30.901Z,19552.00
2019-04-14T11:13:30.866Z,19136.00
2019-04-14T11:14:30.857Z,19072.00
2019-04-14T11:15:30.857Z,19264.00
2019-04-14T11:16:30.835Z,19104.00
2019-04-14T11:17:30.824Z,18400.00
2019-04-14T11:18:30.855Z,17216.00
2019-04-14T11:19:30.802Z,17232.00
2019-04-14T11:20:30.820Z,16992.00
2019-04-14T11:21:42.012Z,16560.00
2019-04-14T11:22:31.916Z,15996.00
2019-04-14T11:23:30.862Z,15412.00
2019-04-14T11:24:30.772Z,15244.00
2019-04-14T11:25:30.749Z,15348.00
2019-04-14T11:26:30.743Z,15484.00
2019-04-14T11:27:30.734Z,15080.00
2019-04-14T11:28:30.708Z,15264.00
2019-04-14T11:29:30.703Z,15988.00
2019-04-14T11:30:30.786Z,15796.00
2019-04-14T11:31:30.676Z,15572.00
2019-04-14T11:32:30.660Z,15268.00
2019-04-14T11:33:30.689Z,15072.00
2019-04-14T11:34:30.665Z,15080.00
2019-04-14T11:35:30.639Z,15024.00
2019-04-14T11:36:30.619Z,14924.00
2019-04-14T11:37:30.606Z,14800.00
2019-04-14T11:38:30.657Z,14616.00
2019-04-14T11:39:30.590Z,14596.00
2019-04-14T11:40:30.585Z,14624.00
2019-04-14T11:41:30.580Z,14664.00
2019-04-14T11:42:30.554Z,14928.00
2019-04-14T11:43:30.558Z,15060.00
2019-04-14T11:44:30.578Z,14872.00
2019-04-14T11:45:30.546Z,14484.00
2019-04-14T11:46:30.511Z,14448.00
2019-04-14T11:47:30.497Z,14752.00
2019-04-14T11:48:30.485Z,15464.00
2019-04-14T11:49:30.501Z,16364.00
2019-04-14T11:50:30.583Z,17288.00
2019-04-14T11:51:30.458Z,16884.00
2019-04-14T11:52:30.454Z,16748.00
2019-04-14T11:53:30.477Z,15644.00
2019-04-14T11:54:30.441Z,15476.00
2019-04-14T11:55:30.413Z,14572.00
2019-04-14T11:56:30.508Z,14476.00
2019-04-14T11:57:30.411Z,13216.00
2019-04-14T11:58:30.388Z,13336.00
2019-04-14T11:59:30.374Z,14144.00
2019-04-14T12:00:30.371Z,15096.00
2019-04-14T12:01:30.374Z,15496.00
2019-04-14T12:02:30.364Z,15384.00
2019-04-14T12:03:32.286Z,14792.00
2019-04-14T12:04:30.348Z,14468.00
2019-04-14T12:05:30.305Z,14360.00
2019-04-14T12:06:30.315Z,13908.00
2019-04-14T12:07:30.302Z,14600.00
2019-04-14T12:08:30.310Z,14736.00
2019-04-14T12:09:30.264Z,14684.00
2019-04-14T12:10:30.265Z,14264.00
2019-04-14T12:11:30.239Z,13668.00
2019-04-14T12:12:30.241Z,13512.00
2019-04-14T12:13:30.232Z,13636.00
2019-04-14T12:14:30.239Z,13580.00
2019-04-14T12:15:30.247Z,13952.00
2019-04-14T12:16:30.185Z,13364.00
2019-04-14T12:17:30.175Z,13092.00
2019-04-14T12:18:30.164Z,14404.00
2019-04-14T12:19:30.181Z,14532.00
2019-04-14T12:20:30.139Z,14456.00
2019-04-14T12:21:30.158Z,14580.00
2019-04-14T12:22:30.184Z,14860.00
2019-04-14T12:23:30.258Z,14484.00
2019-04-14T12:24:30.119Z,14080.00
2019-04-14T12:25:30.105Z,14212.00
2019-04-14T12:26:30.131Z,14536.00
2019-04-14T12:27:30.062Z,15576.00
2019-04-14T12:28:30.063Z,15956.00
2019-04-14T12:29:30.485Z,16016.00
2019-04-14T12:30:31.218Z,15044.00
2019-04-14T12:31:30.956Z,13924.00
2019-04-14T12:32:30.027Z,13464.00
2019-04-14T12:33:30.014Z,12956.00
2019-04-14T12:34:29.989Z,11628.00
2019-04-14T12:35:29.986Z,10812.00
2019-04-14T12:36:29.979Z,10704.00
2019-04-14T12:37:29.961Z,10680.00
2019-04-14T12:38:29.986Z,11676.00
2019-04-14T12:39:29.953Z,11900.00
2019-04-14T12:40:29.926Z,12036.00
2019-04-14T12:41:30.994Z,12524.00
2019-04-14T12:42:29.929Z,13316.00
2019-04-14T12:43:29.902Z,13972.00
2019-04-14T12:44:29.884Z,14176.00